sensor_id;sensor_type;location;lat;lon;timestamp;P1;durP1;ratioP1;P2;durP2;ratioP2
8474;SDS011;4274;52.012;8.448;2023-04-24T00:00:56;41.27;;;1.80;;
8474;SDS011;4274;52.012;8.448;2023-04-24T00:03:23;42.80;;;2.07;;
8474;SDS011;4274;52.012;8.448;2023-04-24T00:05:49;42.57;;;2.10;;
8474;SDS011;4274;52.012;8.448;2023-04-24T00:08:16;41.43;;;2.00;;
8474;SDS011;4274;52.012;8.448;2023-04-24T00:10:41;42.00;;;1.87;;
8474;SDS011;4274;52.012;8.448;2023-04-24T00:13:07;41.93;;;2.10;;
8474;SDS011;4274;52.012;8.448;2023-04-24T00:15:33;42.30;;;2.00;;
8474;SDS011;4274;52.012;8.448;2023-04-24T00:17:58;41.80;;;2.20;;
8474;SDS011;4274;52.012;8.448;2023-04-24T00:20:26;41.87;;;1.80;;
8474;SDS011;4274;52.012;8.448;2023-04-24T00:22:53;40.97;;;1.80;;
8474;SDS011;4274;52.012;8.448;2023-04-24T00:25:18;41.90;;;1.90;;
8474;SDS011;4274;52.012;8.448;2023-04-24T00:27:44;41.57;;;1.90;;
8474;SDS011;4274;52.012;8.448;2023-04-24T00:30:10;41.63;;;1.90;;
8474;SDS011;4274;52.012;8.448;2023-04-24T00:32:35;41.67;;;2.00;;
8474;SDS011;4274;52.012;8.448;2023-04-24T00:35:01;41.70;;;2.00;;
8474;SDS011;4274;52.012;8.448;2023-04-24T00:37:27;41.30;;;1.90;;
8474;SDS011;4274;52.012;8.448;2023-04-24T00:39:53;41.70;;;2.00;;
8474;SDS011;4274;52.012;8.448;2023-04-24T00:42:19;42.20;;;2.20;;
8474;SDS011;4274;52.012;8.448;2023-04-24T00:44:45;42.70;;;2.10;;
8474;SDS011;4274;52.012;8.448;2023-04-24T00:47:11;41.30;;;2.10;;
8474;SDS011;4274;52.012;8.448;2023-04-24T00:49:37;41.90;;;2.27;;
8474;SDS011;4274;52.012;8.448;2023-04-24T00:52:03;42.07;;;2.00;;
8474;SDS011;4274;52.012;8.448;2023-04-24T00:54:32;43.03;;;2.33;;
8474;SDS011;4274;52.012;8.448;2023-04-24T00:56:58;41.57;;;2.00;;
8474;SDS011;4274;52.012;8.448;2023-04-24T00:59:23;41.90;;;2.03;;
8474;SDS011;4274;52.012;8.448;2023-04-24T01:01:49;53.97;;;2.60;;
8474;SDS011;4274;52.012;8.448;2023-04-24T01:04:16;42.30;;;2.20;;
8474;SDS011;4274;52.012;8.448;2023-04-24T01:06:42;41.63;;;2.10;;
8474;SDS011;4274;52.012;8.448;2023-04-24T01:09:10;41.67;;;2.00;;
8474;SDS011;4274;52.012;8.448;2023-04-24T01:11:37;44.90;;;2.30;;
8474;SDS011;4274;52.012;8.448;2023-04-24T01:14:02;41.50;;;2.03;;
8474;SDS011;4274;52.012;8.448;2023-04-24T01:16:28;41.77;;;1.93;;
8474;SDS011;4274;52.012;8.448;2023-04-24T01:18:54;41.57;;;2.20;;
8474;SDS011;4274;52.012;8.448;2023-04-24T01:21:20;41.47;;;2.40;;
8474;SDS011;4274;52.012;8.448;2023-04-24T01:23:48;44.57;;;2.40;;
8474;SDS011;4274;52.012;8.448;2023-04-24T01:26:15;42.73;;;2.43;;
8474;SDS011;4274;52.012;8.448;2023-04-24T01:28:42;41.87;;;2.30;;
8474;SDS011;4274;52.012;8.448;2023-04-24T01:31:07;41.77;;;2.03;;
8474;SDS011;4274;52.012;8.448;2023-04-24T01:33:33;42.30;;;2.40;;
8474;SDS011;4274;52.012;8.448;2023-04-24T01:35:59;42.30;;;2.50;;
8474;SDS011;4274;52.012;8.448;2023-04-24T01:38:25;42.00;;;2.23;;
8474;SDS011;4274;52.012;8.448;2023-04-24T01:40:50;41.53;;;2.40;;
8474;SDS011;4274;52.012;8.448;2023-04-24T01:43:17;41.73;;;2.10;;
8474;SDS011;4274;52.012;8.448;2023-04-24T01:45:43;41.97;;;2.40;;
8474;SDS011;4274;52.012;8.448;2023-04-24T01:48:09;41.30;;;2.20;;
8474;SDS011;4274;52.012;8.448;2023-04-24T01:50:35;41.77;;;2.30;;
8474;SDS011;4274;52.012;8.448;2023-04-24T01:53:01;44.93;;;2.70;;
8474;SDS011;4274;52.012;8.448;2023-04-24T01:55:27;42.77;;;2.80;;
8474;SDS011;4274;52.012;8.448;2023-04-24T01:57:52;43.07;;;2.70;;
8474;SDS011;4274;52.012;8.448;2023-04-24T02:00:20;42.10;;;2.50;;
8474;SDS011;4274;52.012;8.448;2023-04-24T02:02:46;43.10;;;2.70;;
8474;SDS011;4274;52.012;8.448;2023-04-24T02:05:12;46.20;;;2.87;;
8474;SDS011;4274;52.012;8.448;2023-04-24T02:07:37;42.10;;;2.70;;
8474;SDS011;4274;52.012;8.448;2023-04-24T02:10:03;42.57;;;2.40;;
8474;SDS011;4274;52.012;8.448;2023-04-24T02:12:29;44.37;;;3.00;;
8474;SDS011;4274;52.012;8.448;2023-04-24T02:14:55;42.57;;;3.00;;
8474;SDS011;4274;52.012;8.448;2023-04-24T02:17:21;41.80;;;2.30;;
8474;SDS011;4274;52.012;8.448;2023-04-24T02:19:46;42.43;;;2.70;;
8474;SDS011;4274;52.012;8.448;2023-04-24T02:22:12;45.20;;;2.87;;
8474;SDS011;4274;52.012;8.448;2023-04-24T02:24:38;43.40;;;3.00;;
8474;SDS011;4274;52.012;8.448;2023-04-24T02:27:04;45.10;;;2.77;;
8474;SDS011;4274;52.012;8.448;2023-04-24T02:29:29;43.83;;;2.70;;
8474;SDS011;4274;52.012;8.448;2023-04-24T02:31:55;41.80;;;2.60;;
8474;SDS011;4274;52.012;8.448;2023-04-24T02:34:21;42.97;;;2.93;;
8474;SDS011;4274;52.012;8.448;2023-04-24T02:36:48;43.50;;;2.93;;
8474;SDS011;4274;52.012;8.448;2023-04-24T02:39:14;44.53;;;2.97;;
8474;SDS011;4274;52.012;8.448;2023-04-24T02:41:41;43.20;;;3.30;;
8474;SDS011;4274;52.012;8.448;2023-04-24T02:44:07;55.47;;;3.37;;
8474;SDS011;4274;52.012;8.448;2023-04-24T02:46:33;42.50;;;2.70;;
8474;SDS011;4274;52.012;8.448;2023-04-24T02:48:59;41.90;;;2.60;;
8474;SDS011;4274;52.012;8.448;2023-04-24T02:51:24;41.37;;;2.53;;
8474;SDS011;4274;52.012;8.448;2023-04-24T02:53:50;41.73;;;2.80;;
8474;SDS011;4274;52.012;8.448;2023-04-24T02:56:15;41.67;;;2.20;;
8474;SDS011;4274;52.012;8.448;2023-04-24T02:58:41;42.30;;;2.67;;
8474;SDS011;4274;52.012;8.448;2023-04-24T03:01:07;43.53;;;2.73;;
8474;SDS011;4274;52.012;8.448;2023-04-24T03:03:34;42.80;;;2.90;;
8474;SDS011;4274;52.012;8.448;2023-04-24T03:06:00;42.40;;;2.60;;
8474;SDS011;4274;52.012;8.448;2023-04-24T03:08:26;42.70;;;2.77;;
8474;SDS011;4274;52.012;8.448;2023-04-24T03:10:52;43.23;;;2.90;;
8474;SDS011;4274;52.012;8.448;2023-04-24T03:13:17;41.83;;;2.60;;
8474;SDS011;4274;52.012;8.448;2023-04-24T03:15:43;41.97;;;2.63;;
8474;SDS011;4274;52.012;8.448;2023-04-24T03:18:09;41.40;;;2.47;;
8474;SDS011;4274;52.012;8.448;2023-04-24T03:20:35;41.80;;;2.37;;
8474;SDS011;4274;52.012;8.448;2023-04-24T03:23:02;42.33;;;2.70;;
8474;SDS011;4274;52.012;8.448;2023-04-24T03:25:28;42.97;;;2.70;;
8474;SDS011;4274;52.012;8.448;2023-04-24T03:27:53;42.30;;;2.80;;
8474;SDS011;4274;52.012;8.448;2023-04-24T03:30:19;41.40;;;2.40;;
8474;SDS011;4274;52.012;8.448;2023-04-24T03:32:45;42.70;;;2.77;;
8474;SDS011;4274;52.012;8.448;2023-04-24T03:35:11;43.23;;;2.50;;
8474;SDS011;4274;52.012;8.448;2023-04-24T03:37:36;41.87;;;3.00;;
8474;SDS011;4274;52.012;8.448;2023-04-24T03:40:02;42.17;;;2.70;;
8474;SDS011;4274;52.012;8.448;2023-04-24T03:42:28;40.83;;;2.43;;
8474;SDS011;4274;52.012;8.448;2023-04-24T03:44:53;42.10;;;2.83;;
8474;SDS011;4274;52.012;8.448;2023-04-24T03:47:19;41.67;;;2.80;;
8474;SDS011;4274;52.012;8.448;2023-04-24T03:49:44;43.00;;;2.93;;
8474;SDS011;4274;52.012;8.448;2023-04-24T03:52:10;42.20;;;2.50;;
8474;SDS011;4274;52.012;8.448;2023-04-24T03:54:36;41.73;;;2.80;;
8474;SDS011;4274;52.012;8.448;2023-04-24T03:57:01;42.47;;;2.77;;
8474;SDS011;4274;52.012;8.448;2023-04-24T03:59:28;42.93;;;3.13;;
8474;SDS011;4274;52.012;8.448;2023-04-24T04:01:53;42.30;;;2.60;;
8474;SDS011;4274;52.012;8.448;2023-04-24T04:04:19;42.37;;;3.30;;
8474;SDS011;4274;52.012;8.448;2023-04-24T04:06:45;43.40;;;3.73;;
8474;SDS011;4274;52.012;8.448;2023-04-24T04:09:11;44.67;;;3.00;;
8474;SDS011;4274;52.012;8.448;2023-04-24T04:11:37;43.33;;;3.27;;
8474;SDS011;4274;52.012;8.448;2023-04-24T04:14:03;43.60;;;3.50;;
8474;SDS011;4274;52.012;8.448;2023-04-24T04:16:28;43.40;;;3.33;;
8474;SDS011;4274;52.012;8.448;2023-04-24T04:18:54;42.60;;;3.23;;
8474;SDS011;4274;52.012;8.448;2023-04-24T04:21:20;43.30;;;2.87;;
8474;SDS011;4274;52.012;8.448;2023-04-24T04:23:46;43.10;;;3.50;;
8474;SDS011;4274;52.012;8.448;2023-04-24T04:26:11;42.50;;;3.23;;
8474;SDS011;4274;52.012;8.448;2023-04-24T04:28:37;43.10;;;3.43;;
8474;SDS011;4274;52.012;8.448;2023-04-24T04:31:04;43.60;;;3.30;;
8474;SDS011;4274;52.012;8.448;2023-04-24T04:33:30;43.00;;;3.13;;
8474;SDS011;4274;52.012;8.448;2023-04-24T04:35:56;42.60;;;3.60;;
8474;SDS011;4274;52.012;8.448;2023-04-24T04:38:23;46.83;;;3.40;;
8474;SDS011;4274;52.012;8.448;2023-04-24T04:40:51;43.60;;;3.90;;
8474;SDS011;4274;52.012;8.448;2023-04-24T04:43:17;43.80;;;4.43;;
8474;SDS011;4274;52.012;8.448;2023-04-24T04:45:42;45.40;;;4.80;;
8474;SDS011;4274;52.012;8.448;2023-04-24T04:48:08;46.60;;;6.20;;
8474;SDS011;4274;52.012;8.448;2023-04-24T04:50:34;49.30;;;6.53;;
8474;SDS011;4274;52.012;8.448;2023-04-24T04:53:00;48.27;;;7.10;;
8474;SDS011;4274;52.012;8.448;2023-04-24T04:55:26;46.87;;;6.50;;
8474;SDS011;4274;52.012;8.448;2023-04-24T04:57:52;49.83;;;8.10;;
8474;SDS011;4274;52.012;8.448;2023-04-24T05:00:17;52.47;;;8.90;;
8474;SDS011;4274;52.012;8.448;2023-04-24T05:02:44;51.77;;;8.73;;
8474;SDS011;4274;52.012;8.448;2023-04-24T05:05:10;55.07;;;9.87;;
8474;SDS011;4274;52.012;8.448;2023-04-24T05:07:35;56.90;;;9.27;;
8474;SDS011;4274;52.012;8.448;2023-04-24T05:10:01;54.37;;;8.07;;
8474;SDS011;4274;52.012;8.448;2023-04-24T05:12:27;53.43;;;8.90;;
8474;SDS011;4274;52.012;8.448;2023-04-24T05:14:52;54.80;;;9.07;;
8474;SDS011;4274;52.012;8.448;2023-04-24T05:17:18;50.10;;;9.43;;
8474;SDS011;4274;52.012;8.448;2023-04-24T05:19:44;49.57;;;8.37;;
8474;SDS011;4274;52.012;8.448;2023-04-24T05:22:10;53.30;;;10.10;;
8474;SDS011;4274;52.012;8.448;2023-04-24T05:24:36;54.90;;;9.13;;
8474;SDS011;4274;52.012;8.448;2023-04-24T05:27:02;54.57;;;10.37;;
8474;SDS011;4274;52.012;8.448;2023-04-24T05:29:32;51.40;;;9.30;;
8474;SDS011;4274;52.012;8.448;2023-04-24T05:31:58;55.00;;;9.97;;
8474;SDS011;4274;52.012;8.448;2023-04-24T05:34:23;52.50;;;9.70;;
8474;SDS011;4274;52.012;8.448;2023-04-24T05:36:49;54.90;;;9.60;;
8474;SDS011;4274;52.012;8.448;2023-04-24T05:39:16;52.37;;;10.23;;
8474;SDS011;4274;52.012;8.448;2023-04-24T05:41:41;52.30;;;10.70;;
8474;SDS011;4274;52.012;8.448;2023-04-24T05:44:07;52.40;;;9.77;;
8474;SDS011;4274;52.012;8.448;2023-04-24T05:46:33;54.00;;;10.30;;
8474;SDS011;4274;52.012;8.448;2023-04-24T05:48:59;51.93;;;9.47;;
8474;SDS011;4274;52.012;8.448;2023-04-24T05:51:24;55.93;;;10.00;;
8474;SDS011;4274;52.012;8.448;2023-04-24T05:53:50;56.50;;;11.00;;
8474;SDS011;4274;52.012;8.448;2023-04-24T05:56:16;53.17;;;10.60;;
8474;SDS011;4274;52.012;8.448;2023-04-24T05:58:42;55.60;;;10.30;;
8474;SDS011;4274;52.012;8.448;2023-04-24T06:01:08;58.77;;;11.47;;
8474;SDS011;4274;52.012;8.448;2023-04-24T06:03:34;57.33;;;11.87;;
8474;SDS011;4274;52.012;8.448;2023-04-24T06:06:00;55.70;;;11.90;;
8474;SDS011;4274;52.012;8.448;2023-04-24T06:08:25;54.13;;;10.53;;
8474;SDS011;4274;52.012;8.448;2023-04-24T06:10:51;54.83;;;11.73;;
8474;SDS011;4274;52.012;8.448;2023-04-24T06:13:16;57.80;;;11.60;;
8474;SDS011;4274;52.012;8.448;2023-04-24T06:15:43;58.30;;;12.37;;
8474;SDS011;4274;52.012;8.448;2023-04-24T06:18:09;55.57;;;12.03;;
8474;SDS011;4274;52.012;8.448;2023-04-24T06:20:37;55.63;;;11.50;;
8474;SDS011;4274;52.012;8.448;2023-04-24T06:23:03;58.40;;;12.57;;
8474;SDS011;4274;52.012;8.448;2023-04-24T06:25:29;58.40;;;12.80;;
8474;SDS011;4274;52.012;8.448;2023-04-24T06:27:55;55.90;;;12.77;;
8474;SDS011;4274;52.012;8.448;2023-04-24T06:30:21;58.63;;;13.23;;
8474;SDS011;4274;52.012;8.448;2023-04-24T06:32:47;58.43;;;12.90;;
8474;SDS011;4274;52.012;8.448;2023-04-24T06:35:13;56.03;;;13.37;;
8474;SDS011;4274;52.012;8.448;2023-04-24T06:37:39;56.20;;;13.10;;
8474;SDS011;4274;52.012;8.448;2023-04-24T06:40:05;59.37;;;12.50;;
8474;SDS011;4274;52.012;8.448;2023-04-24T06:42:31;55.10;;;11.70;;
8474;SDS011;4274;52.012;8.448;2023-04-24T06:44:57;58.10;;;12.03;;
8474;SDS011;4274;52.012;8.448;2023-04-24T06:47:22;59.37;;;12.70;;
8474;SDS011;4274;52.012;8.448;2023-04-24T06:49:48;57.73;;;13.03;;
8474;SDS011;4274;52.012;8.448;2023-04-24T06:52:15;57.43;;;13.30;;
8474;SDS011;4274;52.012;8.448;2023-04-24T06:54:41;53.80;;;12.43;;
8474;SDS011;4274;52.012;8.448;2023-04-24T06:57:07;57.60;;;12.50;;
8474;SDS011;4274;52.012;8.448;2023-04-24T06:59:33;57.80;;;12.83;;
8474;SDS011;4274;52.012;8.448;2023-04-24T07:01:59;54.57;;;11.53;;
8474;SDS011;4274;52.012;8.448;2023-04-24T07:04:25;55.07;;;12.20;;
8474;SDS011;4274;52.012;8.448;2023-04-24T07:06:51;56.27;;;11.57;;
8474;SDS011;4274;52.012;8.448;2023-04-24T07:09:19;55.30;;;12.90;;
8474;SDS011;4274;52.012;8.448;2023-04-24T07:11:45;59.17;;;13.30;;
8474;SDS011;4274;52.012;8.448;2023-04-24T07:14:11;56.23;;;12.47;;
8474;SDS011;4274;52.012;8.448;2023-04-24T07:16:37;55.20;;;12.50;;
8474;SDS011;4274;52.012;8.448;2023-04-24T07:19:03;54.27;;;12.00;;
8474;SDS011;4274;52.012;8.448;2023-04-24T07:21:28;55.80;;;12.90;;
8474;SDS011;4274;52.012;8.448;2023-04-24T07:23:56;57.07;;;12.00;;
8474;SDS011;4274;52.012;8.448;2023-04-24T07:26:21;56.90;;;11.33;;
8474;SDS011;4274;52.012;8.448;2023-04-24T07:28:47;56.30;;;11.27;;
8474;SDS011;4274;52.012;8.448;2023-04-24T07:31:12;53.77;;;11.37;;
8474;SDS011;4274;52.012;8.448;2023-04-24T07:33:38;54.57;;;10.77;;
8474;SDS011;4274;52.012;8.448;2023-04-24T07:36:04;50.67;;;9.00;;
8474;SDS011;4274;52.012;8.448;2023-04-24T07:38:30;53.70;;;10.40;;
8474;SDS011;4274;52.012;8.448;2023-04-24T07:40:56;49.73;;;8.83;;
8474;SDS011;4274;52.012;8.448;2023-04-24T07:43:21;50.10;;;8.10;;
8474;SDS011;4274;52.012;8.448;2023-04-24T07:45:48;49.17;;;9.03;;
8474;SDS011;4274;52.012;8.448;2023-04-24T07:48:14;50.47;;;8.43;;
8474;SDS011;4274;52.012;8.448;2023-04-24T07:50:41;53.20;;;8.50;;
8474;SDS011;4274;52.012;8.448;2023-04-24T07:53:07;48.57;;;7.13;;
8474;SDS011;4274;52.012;8.448;2023-04-24T07:55:32;47.23;;;7.03;;
8474;SDS011;4274;52.012;8.448;2023-04-24T07:57:58;47.00;;;6.50;;
8474;SDS011;4274;52.012;8.448;2023-04-24T08:00:24;51.80;;;6.27;;
8474;SDS011;4274;52.012;8.448;2023-04-24T08:02:49;47.17;;;6.53;;
8474;SDS011;4274;52.012;8.448;2023-04-24T08:05:15;47.47;;;6.77;;
8474;SDS011;4274;52.012;8.448;2023-04-24T08:07:41;45.90;;;6.23;;
8474;SDS011;4274;52.012;8.448;2023-04-24T08:10:07;47.40;;;7.10;;
8474;SDS011;4274;52.012;8.448;2023-04-24T08:12:35;46.97;;;7.30;;
8474;SDS011;4274;52.012;8.448;2023-04-24T08:15:02;46.03;;;6.27;;
8474;SDS011;4274;52.012;8.448;2023-04-24T08:17:27;50.00;;;6.87;;
8474;SDS011;4274;52.012;8.448;2023-04-24T08:19:53;54.83;;;8.40;;
8474;SDS011;4274;52.012;8.448;2023-04-24T08:22:26;47.40;;;7.00;;
8474;SDS011;4274;52.012;8.448;2023-04-24T08:24:55;46.10;;;6.20;;
8474;SDS011;4274;52.012;8.448;2023-04-24T08:27:21;47.07;;;6.40;;
8474;SDS011;4274;52.012;8.448;2023-04-24T08:29:48;47.50;;;6.47;;
8474;SDS011;4274;52.012;8.448;2023-04-24T08:32:14;47.57;;;6.83;;
8474;SDS011;4274;52.012;8.448;2023-04-24T08:34:39;45.17;;;5.80;;
8474;SDS011;4274;52.012;8.448;2023-04-24T08:37:05;45.47;;;6.37;;
8474;SDS011;4274;52.012;8.448;2023-04-24T08:39:30;46.60;;;6.47;;
8474;SDS011;4274;52.012;8.448;2023-04-24T08:41:56;46.20;;;5.70;;
8474;SDS011;4274;52.012;8.448;2023-04-24T08:44:21;46.30;;;5.37;;
8474;SDS011;4274;52.012;8.448;2023-04-24T08:46:48;44.40;;;5.10;;
8474;SDS011;4274;52.012;8.448;2023-04-24T08:49:14;47.30;;;5.43;;
8474;SDS011;4274;52.012;8.448;2023-04-24T08:51:43;44.40;;;4.87;;
8474;SDS011;4274;52.012;8.448;2023-04-24T08:54:10;47.37;;;5.10;;
8474;SDS011;4274;52.012;8.448;2023-04-24T08:56:37;44.10;;;4.63;;
8474;SDS011;4274;52.012;8.448;2023-04-24T08:59:05;46.30;;;5.00;;
8474;SDS011;4274;52.012;8.448;2023-04-24T09:01:32;44.10;;;4.03;;
8474;SDS011;4274;52.012;8.448;2023-04-24T09:03:59;43.90;;;3.83;;
8474;SDS011;4274;52.012;8.448;2023-04-24T09:06:29;44.23;;;4.30;;
8474;SDS011;4274;52.012;8.448;2023-04-24T09:08:57;44.13;;;3.93;;
8474;SDS011;4274;52.012;8.448;2023-04-24T09:11:25;44.33;;;4.33;;
8474;SDS011;4274;52.012;8.448;2023-04-24T09:13:52;43.93;;;4.07;;
8474;SDS011;4274;52.012;8.448;2023-04-24T09:16:19;44.63;;;4.70;;
8474;SDS011;4274;52.012;8.448;2023-04-24T09:18:45;44.40;;;4.13;;
8474;SDS011;4274;52.012;8.448;2023-04-24T09:21:11;42.63;;;3.33;;
8474;SDS011;4274;52.012;8.448;2023-04-24T09:23:37;43.40;;;3.83;;
8474;SDS011;4274;52.012;8.448;2023-04-24T09:26:03;44.67;;;3.90;;
8474;SDS011;4274;52.012;8.448;2023-04-24T09:28:41;43.63;;;4.30;;
8474;SDS011;4274;52.012;8.448;2023-04-24T09:31:11;44.30;;;3.50;;
8474;SDS011;4274;52.012;8.448;2023-04-24T09:33:55;43.00;;;3.60;;
8474;SDS011;4274;52.012;8.448;2023-04-24T09:36:34;43.27;;;3.50;;
8474;SDS011;4274;52.012;8.448;2023-04-24T09:39:04;41.80;;;2.97;;
8474;SDS011;4274;52.012;8.448;2023-04-24T09:41:33;42.90;;;3.40;;
8474;SDS011;4274;52.012;8.448;2023-04-24T09:44:10;42.17;;;3.33;;
8474;SDS011;4274;52.012;8.448;2023-04-24T09:46:44;47.80;;;3.70;;
8474;SDS011;4274;52.012;8.448;2023-04-24T09:49:12;43.30;;;3.23;;
8474;SDS011;4274;52.012;8.448;2023-04-24T09:51:40;42.53;;;3.13;;
8474;SDS011;4274;52.012;8.448;2023-04-24T09:54:16;43.23;;;3.30;;
8474;SDS011;4274;52.012;8.448;2023-04-24T09:56:45;42.77;;;3.37;;
8474;SDS011;4274;52.012;8.448;2023-04-24T09:59:12;42.17;;;3.07;;
8474;SDS011;4274;52.012;8.448;2023-04-24T10:01:39;42.70;;;3.10;;
8474;SDS011;4274;52.012;8.448;2023-04-24T10:04:14;44.07;;;2.80;;
8474;SDS011;4274;52.012;8.448;2023-04-24T10:06:41;42.10;;;2.60;;
8474;SDS011;4274;52.012;8.448;2023-04-24T10:09:08;41.40;;;2.40;;
8474;SDS011;4274;52.012;8.448;2023-04-24T10:11:36;42.70;;;3.27;;
8474;SDS011;4274;52.012;8.448;2023-04-24T10:14:02;42.60;;;2.97;;
8474;SDS011;4274;52.012;8.448;2023-04-24T10:16:28;43.33;;;3.03;;
8474;SDS011;4274;52.012;8.448;2023-04-24T10:18:56;43.03;;;3.27;;
8474;SDS011;4274;52.012;8.448;2023-04-24T10:21:25;42.50;;;3.10;;
8474;SDS011;4274;52.012;8.448;2023-04-24T10:23:51;45.27;;;3.87;;
8474;SDS011;4274;52.012;8.448;2023-04-24T10:26:18;49.03;;;7.93;;
8474;SDS011;4274;52.012;8.448;2023-04-24T10:28:45;44.53;;;4.03;;
8474;SDS011;4274;52.012;8.448;2023-04-24T10:31:12;43.00;;;3.10;;
8474;SDS011;4274;52.012;8.448;2023-04-24T10:33:39;42.30;;;3.30;;
8474;SDS011;4274;52.012;8.448;2023-04-24T10:36:07;45.20;;;3.70;;
8474;SDS011;4274;52.012;8.448;2023-04-24T10:38:34;43.30;;;3.87;;
8474;SDS011;4274;52.012;8.448;2023-04-24T10:41:08;43.40;;;3.83;;
8474;SDS011;4274;52.012;8.448;2023-04-24T10:43:39;42.23;;;3.70;;
8474;SDS011;4274;52.012;8.448;2023-04-24T10:46:05;44.27;;;4.30;;
8474;SDS011;4274;52.012;8.448;2023-04-24T10:48:32;44.00;;;4.43;;
8474;SDS011;4274;52.012;8.448;2023-04-24T10:50:58;43.10;;;4.60;;
8474;SDS011;4274;52.012;8.448;2023-04-24T10:53:26;43.83;;;4.30;;
8474;SDS011;4274;52.012;8.448;2023-04-24T10:58:22;43.77;;;5.00;;
8474;SDS011;4274;52.012;8.448;2023-04-24T11:00:55;44.10;;;5.33;;
8474;SDS011;4274;52.012;8.448;2023-04-24T11:03:26;45.17;;;5.17;;
8474;SDS011;4274;52.012;8.448;2023-04-24T11:08:38;46.70;;;7.20;;
8474;SDS011;4274;52.012;8.448;2023-04-24T11:11:14;46.80;;;6.30;;
8474;SDS011;4274;52.012;8.448;2023-04-24T11:16:35;48.20;;;7.30;;
8474;SDS011;4274;52.012;8.448;2023-04-24T11:21:47;44.57;;;5.63;;
8474;SDS011;4274;52.012;8.448;2023-04-24T11:24:29;43.40;;;5.00;;
8474;SDS011;4274;52.012;8.448;2023-04-24T11:27:21;44.40;;;4.97;;
8474;SDS011;4274;52.012;8.448;2023-04-24T11:37:41;46.60;;;3.33;;
8474;SDS011;4274;52.012;8.448;2023-04-24T11:40:09;42.57;;;3.63;;
8474;SDS011;4274;52.012;8.448;2023-04-24T11:42:37;43.47;;;2.35;;
8474;SDS011;4274;52.012;8.448;2023-04-24T11:45:14;43.23;;;2.70;;
8474;SDS011;4274;52.012;8.448;2023-04-24T11:47:42;41.90;;;2.97;;
8474;SDS011;4274;52.012;8.448;2023-04-24T11:50:10;41.10;;;3.10;;
8474;SDS011;4274;52.012;8.448;2023-04-24T11:52:37;43.13;;;3.70;;
8474;SDS011;4274;52.012;8.448;2023-04-24T11:55:08;41.90;;;3.50;;
8474;SDS011;4274;52.012;8.448;2023-04-24T11:57:39;42.87;;;3.90;;
8474;SDS011;4274;52.012;8.448;2023-04-24T12:00:14;50.27;;;4.00;;
8474;SDS011;4274;52.012;8.448;2023-04-24T12:03:06;43.33;;;4.50;;
8474;SDS011;4274;52.012;8.448;2023-04-24T12:05:36;48.67;;;4.77;;
8474;SDS011;4274;52.012;8.448;2023-04-24T12:08:02;44.50;;;5.50;;
8474;SDS011;4274;52.012;8.448;2023-04-24T12:10:28;43.50;;;4.60;;
8474;SDS011;4274;52.012;8.448;2023-04-24T12:12:56;45.17;;;4.77;;
8474;SDS011;4274;52.012;8.448;2023-04-24T12:15:22;43.70;;;4.60;;
8474;SDS011;4274;52.012;8.448;2023-04-24T12:17:50;43.50;;;4.30;;
8474;SDS011;4274;52.012;8.448;2023-04-24T12:20:17;43.50;;;4.30;;
8474;SDS011;4274;52.012;8.448;2023-04-24T12:25:12;51.43;;;5.03;;
8474;SDS011;4274;52.012;8.448;2023-04-24T12:27:39;44.57;;;5.03;;
8474;SDS011;4274;52.012;8.448;2023-04-24T12:30:05;48.93;;;5.87;;
8474;SDS011;4274;52.012;8.448;2023-04-24T12:32:34;49.63;;;6.03;;
8474;SDS011;4274;52.012;8.448;2023-04-24T12:35:00;53.73;;;5.63;;
8474;SDS011;4274;52.012;8.448;2023-04-24T12:37:32;45.27;;;5.20;;
8474;SDS011;4274;52.012;8.448;2023-04-24T12:42:32;46.93;;;5.70;;
8474;SDS011;4274;52.012;8.448;2023-04-24T12:44:58;49.07;;;6.17;;
8474;SDS011;4274;52.012;8.448;2023-04-24T12:47:26;47.67;;;6.23;;
8474;SDS011;4274;52.012;8.448;2023-04-24T12:49:52;50.10;;;6.57;;
8474;SDS011;4274;52.012;8.448;2023-04-24T12:52:18;47.57;;;6.37;;
8474;SDS011;4274;52.012;8.448;2023-04-24T12:54:47;45.80;;;5.80;;
8474;SDS011;4274;52.012;8.448;2023-04-24T12:57:12;45.73;;;5.90;;
8474;SDS011;4274;52.012;8.448;2023-04-24T12:59:38;46.80;;;6.13;;
8474;SDS011;4274;52.012;8.448;2023-04-24T13:02:04;47.90;;;5.90;;
8474;SDS011;4274;52.012;8.448;2023-04-24T13:04:31;49.90;;;7.23;;
8474;SDS011;4274;52.012;8.448;2023-04-24T13:06:57;47.13;;;6.47;;
8474;SDS011;4274;52.012;8.448;2023-04-24T13:09:22;48.53;;;6.77;;
8474;SDS011;4274;52.012;8.448;2023-04-24T13:11:48;49.10;;;6.90;;
8474;SDS011;4274;52.012;8.448;2023-04-24T13:14:15;47.27;;;6.03;;
8474;SDS011;4274;52.012;8.448;2023-04-24T13:16:40;45.60;;;6.20;;
8474;SDS011;4274;52.012;8.448;2023-04-24T13:19:06;46.73;;;5.53;;
8474;SDS011;4274;52.012;8.448;2023-04-24T13:21:31;49.67;;;6.17;;
8474;SDS011;4274;52.012;8.448;2023-04-24T13:23:57;52.97;;;6.70;;
8474;SDS011;4274;52.012;8.448;2023-04-24T13:26:22;47.33;;;6.30;;
8474;SDS011;4274;52.012;8.448;2023-04-24T13:28:48;49.73;;;6.33;;
8474;SDS011;4274;52.012;8.448;2023-04-24T13:31:14;54.27;;;7.00;;
8474;SDS011;4274;52.012;8.448;2023-04-24T13:33:39;51.73;;;7.60;;
8474;SDS011;4274;52.012;8.448;2023-04-24T13:36:05;56.20;;;7.40;;
8474;SDS011;4274;52.012;8.448;2023-04-24T13:38:31;47.37;;;6.43;;
8474;SDS011;4274;52.012;8.448;2023-04-24T13:40:57;58.53;;;7.13;;
8474;SDS011;4274;52.012;8.448;2023-04-24T13:43:22;53.93;;;7.37;;
8474;SDS011;4274;52.012;8.448;2023-04-24T13:45:48;49.60;;;8.07;;
8474;SDS011;4274;52.012;8.448;2023-04-24T13:48:13;50.90;;;6.93;;
8474;SDS011;4274;52.012;8.448;2023-04-24T13:50:42;52.97;;;7.10;;
8474;SDS011;4274;52.012;8.448;2023-04-24T13:53:09;57.37;;;8.63;;
8474;SDS011;4274;52.012;8.448;2023-04-24T13:55:35;57.03;;;7.60;;
8474;SDS011;4274;52.012;8.448;2023-04-24T13:58:01;56.90;;;8.37;;
8474;SDS011;4274;52.012;8.448;2023-04-24T14:00:28;50.87;;;9.00;;
8474;SDS011;4274;52.012;8.448;2023-04-24T14:02:53;49.70;;;8.00;;
8474;SDS011;4274;52.012;8.448;2023-04-24T14:05:19;55.40;;;8.07;;
8474;SDS011;4274;52.012;8.448;2023-04-24T14:07:46;53.57;;;8.00;;
8474;SDS011;4274;52.012;8.448;2023-04-24T14:10:12;55.80;;;8.30;;
8474;SDS011;4274;52.012;8.448;2023-04-24T14:12:37;54.80;;;7.77;;
8474;SDS011;4274;52.012;8.448;2023-04-24T14:15:03;50.93;;;7.93;;
8474;SDS011;4274;52.012;8.448;2023-04-24T14:17:30;51.10;;;7.60;;
8474;SDS011;4274;52.012;8.448;2023-04-24T14:19:55;58.63;;;8.10;;
8474;SDS011;4274;52.012;8.448;2023-04-24T14:22:21;46.83;;;6.97;;
8474;SDS011;4274;52.012;8.448;2023-04-24T14:24:47;57.20;;;6.90;;
8474;SDS011;4274;52.012;8.448;2023-04-24T14:27:13;49.00;;;6.80;;
8474;SDS011;4274;52.012;8.448;2023-04-24T14:29:38;51.40;;;7.60;;
8474;SDS011;4274;52.012;8.448;2023-04-24T14:32:04;55.93;;;6.27;;
8474;SDS011;4274;52.012;8.448;2023-04-24T14:34:30;51.93;;;6.83;;
8474;SDS011;4274;52.012;8.448;2023-04-24T14:36:55;51.20;;;5.87;;
8474;SDS011;4274;52.012;8.448;2023-04-24T14:39:21;57.40;;;8.20;;
8474;SDS011;4274;52.012;8.448;2023-04-24T14:41:47;58.20;;;6.97;;
8474;SDS011;4274;52.012;8.448;2023-04-24T14:44:13;50.90;;;6.67;;
8474;SDS011;4274;52.012;8.448;2023-04-24T14:46:38;53.47;;;7.10;;
8474;SDS011;4274;52.012;8.448;2023-04-24T14:49:04;54.17;;;7.07;;
8474;SDS011;4274;52.012;8.448;2023-04-24T14:51:29;49.47;;;6.53;;
8474;SDS011;4274;52.012;8.448;2023-04-24T14:53:56;54.80;;;6.80;;
8474;SDS011;4274;52.012;8.448;2023-04-24T14:56:21;52.40;;;6.20;;
8474;SDS011;4274;52.012;8.448;2023-04-24T14:58:47;53.93;;;7.00;;
8474;SDS011;4274;52.012;8.448;2023-04-24T15:01:13;48.90;;;5.63;;
8474;SDS011;4274;52.012;8.448;2023-04-24T15:03:39;46.47;;;5.63;;
8474;SDS011;4274;52.012;8.448;2023-04-24T15:06:04;50.50;;;5.37;;
8474;SDS011;4274;52.012;8.448;2023-04-24T15:08:30;46.10;;;5.00;;
8474;SDS011;4274;52.012;8.448;2023-04-24T15:10:56;48.80;;;5.50;;
8474;SDS011;4274;52.012;8.448;2023-04-24T15:13:21;44.13;;;4.60;;
8474;SDS011;4274;52.012;8.448;2023-04-24T15:15:47;44.57;;;4.70;;
8474;SDS011;4274;52.012;8.448;2023-04-24T15:18:13;49.20;;;5.60;;
8474;SDS011;4274;52.012;8.448;2023-04-24T15:20:38;49.60;;;5.23;;